Time;durP1;ratioP1;P1;durP2;ratioP2;P2;SDS_P1;SDS_P2;PMS_P1;PMS_P2;Temp;Humidity;BMP_temperature;BMP_pressure;BME280_temperature;BME280_humidity;BME280_pressure;Samples;Min_cycle;Max_cycle;Signal;HPM_P1;HPM_P2
2024/01/22 00:02:02;;;;;;;7.30;5.18;;;7.40;99.90;;;;;;5066780;28;20049;-60
2024/01/22 00:04:28;;;;;;;7.50;5.15;;;7.40;99.90;;;;;;5068635;28;20085;-60
2024/01/22 00:06:55;;;;;;;7.80;5.43;;;7.40;99.90;;;;;;5069222;28;20052;-60
2024/01/22 00:09:21;;;;;;;6.88;4.85;;;7.60;99.90;;;;;;5071602;28;20044;-60
2024/01/22 00:11:47;;;;;;;7.30;4.88;;;7.50;99.90;;;;;;5072477;28;20048;-60
2024/01/22 00:14:13;;;;;;;8.73;4.80;;;7.60;99.90;;;;;;5072454;28;20052;-60
2024/01/22 00:16:40;;;;;;;5.97;4.38;;;7.60;99.90;;;;;;5070441;28;20074;-59
2024/01/22 00:19:07;;;;;;;8.13;4.78;;;7.40;99.90;;;;;;5071797;28;20345;-59
2024/01/22 00:21:33;;;;;;;7.65;4.45;;;7.40;99.90;;;;;;5072363;28;20052;-58
2024/01/22 00:24:00;;;;;;;8.32;5.25;;;7.50;99.90;;;;;;5072433;28;20049;-59
2024/01/22 00:26:26;;;;;;;7.97;4.63;;;7.40;99.90;;;;;;5073091;28;20451;-59
2024/01/22 00:28:52;;;;;;;7.00;4.65;;;7.60;99.90;;;;;;5068354;28;20057;-59
2024/01/22 00:31:19;;;;;;;9.07;4.95;;;7.70;99.90;;;;;;5050748;28;20464;-60
2024/01/22 00:33:45;;;;;;;5.75;4.53;;;7.60;99.90;;;;;;5051690;28;20059;-60
2024/01/22 00:36:16;;;;;;;6.65;4.57;;;7.60;99.90;;;;;;5052267;28;20059;-60
2024/01/22 00:38:43;;;;;;;8.52;5.15;;;7.60;99.90;;;;;;5054473;28;20049;-60
2024/01/22 00:41:09;;;;;;;7.57;5.32;;;7.70;99.90;;;;;;5071968;28;20052;-59
2024/01/22 00:43:37;;;;;;;6.57;4.28;;;7.70;99.90;;;;;;5071822;28;20102;-59
2024/01/22 00:46:04;;;;;;;7.75;5.03;;;7.80;99.90;;;;;;5070529;28;20110;-58
2024/01/22 00:48:30;;;;;;;8.90;4.20;;;7.90;99.90;;;;;;5070917;28;20068;-60
2024/01/22 00:50:56;;;;;;;7.78;4.32;;;8.10;99.90;;;;;;5052101;28;20057;-59
2024/01/22 00:53:22;;;;;;;6.00;3.67;;;8.10;99.90;;;;;;5051456;28;20115;-60
2024/01/22 00:55:49;;;;;;;6.75;3.80;;;8.20;99.90;;;;;;5050645;28;20501;-60
2024/01/22 00:58:17;;;;;;;6.65;4.70;;;8.20;99.90;;;;;;5050514;28;20162;-58
2024/01/22 01:00:43;;;;;;;4.95;3.92;;;8.40;99.90;;;;;;5068971;28;20045;-55
2024/01/22 01:03:09;;;;;;;6.03;3.88;;;8.50;99.90;;;;;;5071030;28;20044;-60
2024/01/22 01:05:36;;;;;;;6.03;4.07;;;8.50;99.90;;;;;;5054179;28;20089;-59
2024/01/22 01:08:02;;;;;;;5.63;3.92;;;8.60;99.90;;;;;;5071116;28;20045;-59
2024/01/22 01:10:28;;;;;;;7.13;4.07;;;8.70;99.90;;;;;;5059792;28;20058;-59
2024/01/22 01:12:54;;;;;;;6.90;4.05;;;8.70;99.90;;;;;;5071126;28;20052;-60
2024/01/22 01:15:23;;;;;;;5.22;3.67;;;8.80;99.90;;;;;;5071905;28;20049;-59
2024/01/22 01:17:49;;;;;;;5.47;3.63;;;8.90;99.90;;;;;;5071497;28;20059;-59
2024/01/22 01:20:16;;;;;;;6.40;3.38;;;9.00;99.90;;;;;;5055797;28;20350;-60
2024/01/22 01:22:43;;;;;;;4.80;3.70;;;9.00;99.90;;;;;;5051386;28;20045;-59
2024/01/22 01:25:09;;;;;;;6.28;3.90;;;8.80;99.90;;;;;;5051531;28;20469;-59
2024/01/22 01:27:36;;;;;;;8.48;3.97;;;8.90;99.90;;;;;;5050294;28;20102;-60
2024/01/22 01:30:03;;;;;;;6.90;3.88;;;8.80;99.90;;;;;;5050605;28;20071;-59
2024/01/22 01:32:29;;;;;;;5.80;3.38;;;8.90;99.90;;;;;;5050946;28;20056;-60
2024/01/22 01:34:56;;;;;;;5.50;3.47;;;8.90;99.90;;;;;;5051458;28;20063;-60
2024/01/22 01:37:23;;;;;;;6.20;3.78;;;8.80;99.90;;;;;;5049658;28;20045;-60
2024/01/22 01:39:49;;;;;;;6.05;3.80;;;8.80;99.90;;;;;;5052211;28;20060;-60
2024/01/22 01:42:16;;;;;;;6.60;3.45;;;8.80;99.90;;;;;;5051199;28;20136;-60
2024/01/22 01:44:50;;;;;;;6.30;4.05;;;9.10;99.90;;;;;;5051370;28;20045;-60
2024/01/22 01:47:17;;;;;;;7.28;3.50;;;9.10;99.90;;;;;;5033485;28;20068;-59
2024/01/22 01:49:45;;;;;;;7.75;4.13;;;9.10;99.90;;;;;;5050999;28;20164;-60
2024/01/22 01:52:12;;;;;;;6.15;3.55;;;9.10;99.90;;;;;;5050337;28;20048;-59
2024/01/22 01:54:46;;;;;;;5.35;4.13;;;9.10;99.90;;;;;;5050081;28;20052;-59
2024/01/22 01:57:12;;;;;;;6.10;3.65;;;9.10;99.90;;;;;;5051748;28;20048;-59
2024/01/22 01:59:43;;;;;;;6.25;3.88;;;9.10;99.90;;;;;;5061697;28;20051;-59
2024/01/22 02:02:09;;;;;;;6.75;3.85;;;8.90;99.90;;;;;;5071119;28;20051;-60
2024/01/22 02:04:36;;;;;;;5.85;3.45;;;8.90;99.90;;;;;;5072212;28;20147;-59
2024/01/22 02:07:04;;;;;;;6.70;4.13;;;8.80;99.90;;;;;;5071101;28;20117;-60
2024/01/22 02:09:50;;;;;;;5.35;3.80;;;9.00;99.90;;;;;;5062886;28;20052;-60
2024/01/22 02:12:17;;;;;;;7.25;3.60;;;9.00;99.90;;;;;;5052021;28;20438;-60
2024/01/22 02:14:47;;;;;;;5.32;3.30;;;8.80;99.90;;;;;;5052723;28;20171;-61
2024/01/22 02:17:14;;;;;;;6.85;3.70;;;9.00;99.90;;;;;;5052603;28;20079;-59
2024/01/22 02:19:41;;;;;;;5.70;3.75;;;8.90;99.90;;;;;;5051143;28;20048;-60
2024/01/22 02:22:08;;;;;;;6.47;3.13;;;9.10;99.90;;;;;;5049696;28;20045;-60
2024/01/22 02:24:36;;;;;;;5.80;3.42;;;9.10;99.90;;;;;;5050962;28;20376;-59
2024/01/22 02:27:02;;;;;;;6.43;3.95;;;9.00;99.90;;;;;;5051401;28;20383;-59
2024/01/22 02:29:29;;;;;;;5.75;3.35;;;8.90;99.90;;;;;;5042293;28;20102;-60
2024/01/22 02:31:55;;;;;;;5.85;3.50;;;9.10;99.90;;;;;;5070492;28;20044;-59
2024/01/22 02:34:21;;;;;;;5.13;3.33;;;8.90;99.90;;;;;;5070577;28;20055;-59
2024/01/22 02:36:51;;;;;;;7.03;3.53;;;9.00;99.90;;;;;;5071198;28;20055;-60
2024/01/22 02:39:17;;;;;;;6.00;4.10;;;8.70;99.90;;;;;;5066007;28;20040;-59
2024/01/22 02:41:44;;;;;;;6.47;3.53;;;8.80;99.90;;;;;;5051804;28;20057;-60
2024/01/22 02:44:10;;;;;;;5.63;3.67;;;9.00;99.90;;;;;;5052265;28;20052;-59
2024/01/22 02:46:37;;;;;;;7.28;3.78;;;9.10;99.90;;;;;;5051312;28;20122;-59
2024/01/22 02:49:07;;;;;;;5.28;3.42;;;8.90;99.90;;;;;;5051573;28;20053;-59
2024/01/22 02:51:33;;;;;;;6.55;3.38;;;9.00;99.90;;;;;;5051908;28;20052;-59
2024/01/22 02:53:59;;;;;;;5.03;3.42;;;9.10;99.90;;;;;;5051775;28;20055;-59
2024/01/22 02:56:26;;;;;;;6.40;3.42;;;9.10;99.90;;;;;;5051750;28;20072;-59
2024/01/22 02:58:52;;;;;;;6.95;3.90;;;9.10;99.90;;;;;;5054795;28;20049;-59
2024/01/22 03:01:19;;;;;;;5.35;3.70;;;8.90;99.90;;;;;;5067284;28;20037;-60
2024/01/22 03:03:45;;;;;;;7.20;3.67;;;9.10;99.90;;;;;;5051645;28;20491;-60
2024/01/22 03:06:12;;;;;;;5.40;3.28;;;8.90;99.90;;;;;;5051554;28;20488;-59
2024/01/22 03:08:39;;;;;;;5.50;3.28;;;9.00;99.90;;;;;;5051021;28;20354;-59
2024/01/22 03:11:06;;;;;;;4.88;3.33;;;9.10;99.90;;;;;;5050826;28;20106;-59
2024/01/22 03:13:33;;;;;;;6.78;3.72;;;8.90;99.90;;;;;;5050563;28;20064;-59
2024/01/22 03:15:59;;;;;;;5.80;3.50;;;9.10;99.90;;;;;;5051504;28;20429;-60
2024/01/22 03:18:28;;;;;;;7.13;3.20;;;9.00;99.90;;;;;;5057040;28;20166;-59
2024/01/22 03:20:54;;;;;;;5.38;3.55;;;9.00;99.90;;;;;;5051732;28;20049;-59
2024/01/22 03:23:20;;;;;;;4.90;3.20;;;9.00;99.90;;;;;;5049626;28;20445;-59
2024/01/22 03:25:47;;;;;;;5.28;3.30;;;9.20;99.90;;;;;;5051515;28;20373;-59
2024/01/22 03:28:13;;;;;;;6.05;3.53;;;8.90;99.90;;;;;;5051466;28;20053;-59
2024/01/22 03:30:40;;;;;;;5.13;3.35;;;9.20;99.90;;;;;;5068833;28;20056;-61
2024/01/22 03:33:06;;;;;;;4.65;3.20;;;8.90;99.90;;;;;;5071459;28;20070;-59
2024/01/22 03:35:32;;;;;;;4.57;2.97;;;8.90;99.90;;;;;;5071472;28;20480;-60
2024/01/22 03:37:59;;;;;;;5.70;3.08;;;8.80;99.90;;;;;;5072098;28;20063;-60
2024/01/22 03:40:25;;;;;;;4.90;3.17;;;9.00;99.90;;;;;;5071424;28;20053;-59
2024/01/22 03:42:51;;;;;;;4.72;2.90;;;8.90;99.90;;;;;;5072393;28;20429;-60
2024/01/22 03:45:18;;;;;;;5.55;3.35;;;8.90;99.90;;;;;;5075173;28;20321;-59
2024/01/22 03:47:44;;;;;;;5.53;3.33;;;8.90;99.90;;;;;;5075217;28;20044;-59
2024/01/22 03:50:11;;;;;;;6.32;3.53;;;9.10;99.90;;;;;;5075714;28;20148;-61
2024/01/22 03:52:37;;;;;;;5.35;3.47;;;9.10;99.90;;;;;;5074945;28;20060;-61
2024/01/22 03:55:04;;;;;;;5.55;3.08;;;9.00;99.90;;;;;;5074406;28;20056;-60
2024/01/22 03:57:30;;;;;;;4.30;2.80;;;8.90;99.90;;;;;;5074858;28;20057;-60
2024/01/22 03:59:57;;;;;;;6.07;3.08;;;9.10;99.90;;;;;;5062210;28;20049;-60
2024/01/22 04:02:23;;;;;;;4.03;2.78;;;8.80;99.90;;;;;;5053037;28;20427;-60
2024/01/22 04:04:50;;;;;;;5.65;3.15;;;8.90;99.90;;;;;;5054610;28;20049;-59
2024/01/22 04:07:17;;;;;;;4.07;2.75;;;9.00;99.90;;;;;;5053979;28;20053;-60
2024/01/22 04:09:43;;;;;;;3.60;2.78;;;9.20;99.90;;;;;;5053784;28;20099;-60
2024/01/22 04:12:09;;;;;;;4.47;2.80;;;9.00;99.90;;;;;;5052850;28;20057;-59
2024/01/22 04:14:35;;;;;;;3.75;2.90;;;9.20;99.90;;;;;;5054223;28;20060;-60
2024/01/22 04:17:02;;;;;;;4.00;2.83;;;9.00;99.90;;;;;;5054129;28;20056;-59
2024/01/22 04:19:28;;;;;;;5.22;2.95;;;9.00;99.90;;;;;;5054736;28;20049;-60
2024/01/22 04:21:54;;;;;;;3.85;2.90;;;9.30;99.90;;;;;;5053720;28;20048;-59
2024/01/22 04:24:21;;;;;;;4.38;2.65;;;9.10;99.90;;;;;;5053320;28;20456;-59
2024/01/22 04:26:47;;;;;;;3.90;2.60;;;9.20;99.90;;;;;;5054181;28;20063;-60
2024/01/22 04:29:13;;;;;;;3.70;2.50;;;9.10;99.90;;;;;;5058333;28;20048;-59
2024/01/22 04:31:40;;;;;;;3.28;2.53;;;9.20;99.90;;;;;;5073415;28;20448;-60
2024/01/22 04:34:06;;;;;;;4.65;2.47;;;9.20;99.90;;;;;;5072844;28;20056;-59
2024/01/22 04:36:39;;;;;;;4.03;2.50;;;9.10;99.90;;;;;;5072246;28;20056;-61
2024/01/22 04:39:06;;;;;;;4.88;2.47;;;9.50;99.90;;;;;;5071554;28;20048;-59
2024/01/22 04:41:32;;;;;;;4.20;2.53;;;9.30;99.90;;;;;;5073082;28;20136;-59
2024/01/22 04:43:58;;;;;;;3.10;2.33;;;9.50;99.90;;;;;;5072885;28;20052;-60
2024/01/22 04:46:24;;;;;;;3.80;2.47;;;9.70;99.90;;;;;;5072622;28;20055;-60
2024/01/22 04:48:51;;;;;;;3.35;2.38;;;9.40;99.90;;;;;;5072958;28;20423;-59
2024/01/22 04:51:17;;;;;;;3.45;2.53;;;9.60;99.90;;;;;;5073127;28;20457;-60
2024/01/22 04:53:43;;;;;;;3.08;2.00;;;9.50;99.90;;;;;;5071828;28;20060;-60
2024/01/22 04:56:09;;;;;;;3.50;2.20;;;9.50;99.90;;;;;;5072251;28;20444;-60
2024/01/22 04:58:36;;;;;;;3.42;2.30;;;9.50;99.90;;;;;;5071556;28;20048;-60
2024/01/22 05:01:03;;;;;;;3.75;2.72;;;9.60;99.90;;;;;;5071444;28;20132;-59
2024/01/22 05:03:29;;;;;;;2.58;2.20;;;9.80;99.90;;;;;;5071489;28;20067;-60
2024/01/22 05:05:55;;;;;;;3.00;2.03;;;10.10;99.90;;;;;;5072479;28;20059;-60
2024/01/22 05:08:21;;;;;;;3.85;2.22;;;10.20;99.90;;;;;;5071555;28;20071;-60
2024/01/22 05:10:48;;;;;;;3.67;1.90;;;9.90;99.90;;;;;;5072249;28;20059;-60
2024/01/22 05:13:14;;;;;;;2.72;1.98;;;10.20;99.90;;;;;;5071644;28;20574;-61
2024/01/22 05:15:41;;;;;;;3.65;2.20;;;10.20;99.90;;;;;;5071617;28;20075;-61
2024/01/22 05:18:07;;;;;;;3.65;2.00;;;10.50;99.90;;;;;;5072305;28;20060;-61
2024/01/22 05:20:33;;;;;;;3.05;1.80;;;10.30;99.90;;;;;;5071074;28;20276;-60
2024/01/22 05:22:59;;;;;;;4.13;2.00;;;10.60;99.90;;;;;;5071847;28;20060;-59
2024/01/22 05:25:26;;;;;;;3.90;1.50;;;10.70;99.90;;;;;;5071498;28;20053;-61
2024/01/22 05:27:52;;;;;;;1.85;1.50;;;10.40;99.90;;;;;;5073546;28;20055;-61
2024/01/22 05:30:18;;;;;;;2.33;1.50;;;10.80;99.90;;;;;;5072847;28;20067;-61
2024/01/22 05:32:44;;;;;;;2.58;1.40;;;10.50;99.90;;;;;;5072002;28;20056;-61
2024/01/22 05:35:13;;;;;;;3.25;1.40;;;10.60;99.90;;;;;;5072032;28;20065;-60
2024/01/22 05:37:39;;;;;;;2.70;1.35;;;10.90;99.90;;;;;;5072789;28;20352;-60
2024/01/22 05:40:10;;;;;;;2.20;1.55;;;10.80;99.90;;;;;;5071440;28;20432;-61
2024/01/22 05:42:37;;;;;;;1.50;1.10;;;11.00;99.90;;;;;;5071869;28;20106;-60
2024/01/22 05:45:03;;;;;;;1.85;1.20;;;10.90;99.90;;;;;;5071545;28;20151;-61
2024/01/22 05:47:30;;;;;;;2.22;1.60;;;10.90;99.90;;;;;;5055488;28;20059;-58
2024/01/22 05:49:56;;;;;;;2.42;1.40;;;11.00;99.90;;;;;;5062552;28;20063;-61
2024/01/22 05:52:22;;;;;;;3.50;1.42;;;11.00;99.90;;;;;;5051337;28;20072;-61
2024/01/22 05:54:48;;;;;;;2.17;1.20;;;11.10;99.90;;;;;;5050996;28;20102;-61
2024/01/22 05:57:15;;;;;;;2.72;1.30;;;10.90;99.90;;;;;;5051719;28;20380;-60
2024/01/22 05:59:41;;;;;;;3.67;1.35;;;10.80;99.90;;;;;;5060763;28;20047;-60
2024/01/22 06:02:07;;;;;;;2.03;1.10;;;10.90;99.90;;;;;;5069810;28;20057;-62
2024/01/22 06:04:33;;;;;;;3.03;1.50;;;11.00;99.90;;;;;;5070228;28;20327;-63
2024/01/22 06:07:00;;;;;;;2.63;1.42;;;11.00;99.90;;;;;;5071782;28;20368;-62
2024/01/22 06:09:27;;;;;;;3.10;1.40;;;11.00;99.90;;;;;;5069678;28;20056;-61
2024/01/22 06:11:53;;;;;;;4.43;1.73;;;11.10;99.90;;;;;;5069956;28;20053;-60
2024/01/22 06:14:20;;;;;;;3.45;1.45;;;10.90;99.90;;;;;;5070007;28;20056;-60
2024/01/22 06:16:46;;;;;;;2.58;1.30;;;10.80;99.90;;;;;;5070216;28;20064;-62
2024/01/22 06:19:13;;;;;;;3.13;1.73;;;11.00;99.90;;;;;;5067240;28;20045;-61
2024/01/22 06:21:39;;;;;;;2.90;1.30;;;10.90;99.90;;;;;;5069774;28;20045;-60
2024/01/22 06:24:05;;;;;;;3.13;1.60;;;10.70;99.90;;;;;;5067505;28;20482;-60
2024/01/22 06:26:33;;;;;;;3.25;1.80;;;10.70;99.90;;;;;;5071598;28;20132;-60
2024/01/22 06:29:00;;;;;;;2.75;1.50;;;10.90;99.90;;;;;;5051997;28;20083;-60
2024/01/22 06:31:26;;;;;;;2.67;1.40;;;10.80;99.90;;;;;;5035110;28;20500;-60
2024/01/22 06:33:52;;;;;;;3.15;1.70;;;10.60;99.90;;;;;;5051831;28;20072;-60
2024/01/22 06:36:19;;;;;;;3.45;1.52;;;10.50;99.90;;;;;;5050777;28;20049;-61
2024/01/22 06:38:45;;;;;;;5.43;2.40;;;10.70;99.90;;;;;;5053011;28;20052;-61
2024/01/22 06:41:11;;;;;;;5.70;2.22;;;10.50;99.90;;;;;;5070200;28;20048;-60
2024/01/22 06:43:38;;;;;;;7.78;2.10;;;10.50;99.90;;;;;;5070932;28;20052;-61
2024/01/22 06:46:05;;;;;;;7.20;2.40;;;10.50;99.90;;;;;;5069459;28;20064;-60
2024/01/22 06:48:32;;;;;;;7.32;2.28;;;10.50;99.90;;;;;;5070543;28;20457;-61
2024/01/22 06:50:58;;;;;;;11.32;3.55;;;10.50;99.90;;;;;;5071208;28;20048;-59
2024/01/22 06:53:24;;;;;;;8.13;2.28;;;10.60;99.90;;;;;;5070019;28;20060;-61
2024/01/22 06:55:50;;;;;;;12.82;2.70;;;10.80;99.90;;;;;;5070727;28;20048;-60
2024/01/22 06:58:17;;;;;;;13.13;2.65;;;10.70;99.90;;;;;;5070767;28;20045;-61
2024/01/22 07:00:44;;;;;;;9.35;2.45;;;11.10;99.90;;;;;;5068812;28;20117;-61
2024/01/22 07:03:12;;;;;;;8.35;2.60;;;11.10;99.90;;;;;;5053167;28;20080;-61
2024/01/22 07:05:38;;;;;;;10.30;2.97;;;10.90;99.90;;;;;;5069998;28;20056;-61
2024/01/22 07:08:05;;;;;;;8.35;2.97;;;11.10;99.90;;;;;;5068414;28;20063;-60
2024/01/22 07:10:40;;;;;;;14.75;3.67;;;11.00;99.90;;;;;;5068709;28;20052;-60
2024/01/22 07:13:07;;;;;;;10.63;2.78;;;11.10;99.90;;;;;;5070227;28;20206;-60
2024/01/22 07:15:33;;;;;;;10.90;3.10;;;11.10;99.90;;;;;;5070683;28;20113;-61
2024/01/22 07:18:00;;;;;;;11.55;2.78;;;10.80;99.90;;;;;;5070570;28;20045;-61
2024/01/22 07:20:26;;;;;;;9.63;2.75;;;10.80;99.90;;;;;;5069737;28;20060;-61
2024/01/22 07:22:53;;;;;;;9.30;2.90;;;10.90;99.90;;;;;;5053457;28;20040;-61
2024/01/22 07:25:21;;;;;;;13.15;3.17;;;11.10;99.90;;;;;;5071114;28;20364;-61
2024/01/22 07:27:48;;;;;;;11.93;3.33;;;11.10;99.90;;;;;;5072065;28;20061;-61
2024/01/22 07:30:15;;;;;;;12.50;3.55;;;11.10;99.90;;;;;;5057583;28;20057;-61
2024/01/22 07:32:43;;;;;;;8.43;3.42;;;10.90;99.90;;;;;;5063134;28;20457;-62
2024/01/22 07:35:13;;;;;;;13.05;3.28;;;10.80;99.90;;;;;;5070845;28;20508;-62
2024/01/22 07:37:42;;;;;;;14.43;3.50;;;10.70;99.90;;;;;;5070995;28;20052;-61
2024/01/22 07:40:09;;;;;;;11.48;2.75;;;10.70;99.90;;;;;;5069979;28;20048;-63
2024/01/22 07:42:36;;;;;;;13.65;3.47;;;10.70;99.90;;;;;;5070930;28;20123;-61
2024/01/22 07:45:06;;;;;;;14.85;3.83;;;10.90;99.90;;;;;;5071026;28;20051;-62
2024/01/22 07:47:33;;;;;;;14.15;3.75;;;10.60;99.90;;;;;;5069132;28;20114;-61
2024/01/22 07:50:00;;;;;;;12.02;2.78;;;10.80;99.90;;;;;;5062089;28;20110;-62
2024/01/22 07:52:27;;;;;;;7.20;2.78;;;10.70;99.90;;;;;;5070364;28;20449;-62
2024/01/22 07:54:53;;;;;;;12.25;2.70;;;10.70;99.90;;;;;;5051080;28;20114;-62
2024/01/22 07:57:20;;;;;;;14.80;3.00;;;10.70;99.90;;;;;;5052642;28;20049;-62
2024/01/22 07:59:46;;;;;;;13.40;3.22;;;10.40;99.90;;;;;;5052611;28;20045;-62
2024/01/22 08:02:13;;;;;;;13.88;3.90;;;10.30;99.90;;;;;;5052114;28;20045;-61
2024/01/22 08:04:39;;;;;;;9.13;3.15;;;10.60;99.90;;;;;;5051713;28;20063;-62
2024/01/22 08:07:06;;;;;;;10.90;3.00;;;10.60;99.90;;;;;;5068329;28;20407;-61
2024/01/22 08:09:34;;;;;;;9.95;3.42;;;10.40;99.90;;;;;;5052391;28;20114;-62
2024/01/22 08:12:00;;;;;;;9.82;3.10;;;10.60;99.90;;;;;;5071622;28;20120;-62
2024/01/22 08:14:30;;;;;;;12.73;3.38;;;10.60;99.90;;;;;;5070581;28;20091;-62
2024/01/22 08:16:58;;;;;;;9.45;3.13;;;10.40;99.90;;;;;;5054437;28;20051;-61
2024/01/22 08:19:26;;;;;;;16.33;3.45;;;10.30;99.90;;;;;;5070834;28;20048;-62
2024/01/22 08:21:53;;;;;;;10.82;3.33;;;10.20;99.90;;;;;;5070924;28;20372;-62
2024/01/22 08:24:19;;;;;;;8.85;3.22;;;10.50;99.90;;;;;;5071409;28;20049;-61
2024/01/22 08:26:45;;;;;;;18.65;4.22;;;10.50;99.90;;;;;;5066669;28;20333;-62
2024/01/22 08:29:13;;;;;;;11.45;3.38;;;10.10;99.90;;;;;;5070903;28;20350;-62
2024/01/22 08:31:42;;;;;;;14.55;3.53;;;10.60;99.90;;;;;;5075882;28;20561;-61
2024/01/22 08:34:09;;;;;;;20.20;4.40;;;10.50;99.90;;;;;;5075697;28;20392;-61
2024/01/22 08:36:35;;;;;;;14.35;4.22;;;10.10;99.90;;;;;;5075387;28;20372;-60
2024/01/22 08:39:02;;;;;;;15.35;3.53;;;10.10;99.90;;;;;;5073427;28;20049;-60
2024/01/22 08:41:29;;;;;;;19.38;4.35;;;10.50;99.90;;;;;;5054183;28;20060;-61
2024/01/22 08:43:59;;;;;;;19.23;4.78;;;10.20;99.90;;;;;;5055394;28;20045;-61
2024/01/22 08:46:29;;;;;;;16.23;4.15;;;10.10;99.90;;;;;;5050347;28;20131;-62
2024/01/22 08:48:55;;;;;;;15.25;4.50;;;10.20;99.90;;;;;;5074451;28;20381;-61
2024/01/22 08:51:22;;;;;;;19.67;5.82;;;10.10;99.90;;;;;;5055538;28;20072;-61
2024/01/22 08:53:48;;;;;;;22.77;5.35;;;10.40;99.90;;;;;;5054576;28;20048;-62
2024/01/22 08:56:15;;;;;;;27.35;5.82;;;10.50;99.90;;;;;;5073774;28;20059;-61
2024/01/22 08:58:41;;;;;;;18.20;4.95;;;10.40;99.90;;;;;;5073313;28;20040;-61
2024/01/22 09:01:07;;;;;;;29.17;5.97;;;10.30;99.90;;;;;;5072983;28;20397;-62
2024/01/22 09:03:33;;;;;;;27.05;5.97;;;10.00;99.90;;;;;;5074602;28;20352;-61
2024/01/22 09:06:03;;;;;;;28.05;5.68;;;10.00;99.90;;;;;;5056556;28;20142;-58
2024/01/22 09:08:29;;;;;;;29.42;5.57;;;10.20;99.90;;;;;;5073114;28;20067;-62
2024/01/22 09:10:57;;;;;;;27.50;5.07;;;10.00;99.90;;;;;;5074700;28;20075;-61
2024/01/22 09:13:23;;;;;;;20.05;5.70;;;10.00;99.90;;;;;;5072847;28;20048;-62
2024/01/22 09:15:50;;;;;;;27.95;4.80;;;10.00;99.90;;;;;;5073656;28;20049;-62
2024/01/22 09:18:16;;;;;;;33.72;6.45;;;10.10;99.90;;;;;;5071260;28;20357;-61
2024/01/22 09:20:45;;;;;;;28.70;5.60;;;10.20;99.90;;;;;;5058741;28;20374;-62
2024/01/22 09:23:11;;;;;;;27.48;5.60;;;10.20;99.90;;;;;;5053400;28;20048;-60
2024/01/22 09:25:41;;;;;;;29.38;6.53;;;9.90;99.90;;;;;;5053971;28;20045;-61
2024/01/22 09:28:08;;;;;;;30.77;7.55;;;10.30;99.90;;;;;;5053151;28;20052;-61
2024/01/22 09:30:34;;;;;;;37.63;7.60;;;10.30;99.90;;;;;;5066806;28;20131;-61
2024/01/22 09:33:00;;;;;;;31.45;6.63;;;10.10;99.90;;;;;;5074316;28;20040;-61
2024/01/22 09:35:27;;;;;;;32.05;6.40;;;10.10;99.90;;;;;;5074114;28;20075;-61
2024/01/22 09:37:54;;;;;;;38.15;7.90;;;10.10;99.90;;;;;;5073852;28;20045;-61
2024/01/22 09:40:24;;;;;;;30.92;6.85;;;10.30;99.90;;;;;;5061834;28;20056;-60
2024/01/22 09:42:51;;;;;;;31.25;6.90;;;10.30;99.90;;;;;;5054648;28;20113;-60
2024/01/22 09:45:17;;;;;;;42.95;8.85;;;10.40;99.90;;;;;;5053863;28;20041;-62
2024/01/22 09:47:46;;;;;;;37.15;8.25;;;10.00;99.90;;;;;;5053746;28;20041;-61
2024/01/22 09:50:12;;;;;;;34.55;7.63;;;10.30;99.90;;;;;;5063600;28;20063;-59
2024/01/22 09:52:45;;;;;;;35.65;7.68;;;10.00;99.90;;;;;;5072635;28;20087;-61
2024/01/22 09:55:13;;;;;;;30.25;7.35;;;10.20;99.90;;;;;;5072673;28;20399;-61
2024/01/22 09:57:44;;;;;;;27.70;6.60;;;10.30;99.90;;;;;;5072722;28;20475;-60
2024/01/22 10:00:16;;;;;;;33.35;7.00;;;10.30;99.90;;;;;;5072324;28;20048;-61
2024/01/22 10:02:42;;;;;;;28.95;6.90;;;10.30;99.90;;;;;;5072293;28;20056;-61
2024/01/22 10:05:09;;;;;;;27.88;5.47;;;10.10;99.90;;;;;;5073669;28;20052;-62
2024/01/22 10:07:35;;;;;;;39.38;7.80;;;10.10;99.90;;;;;;5072365;28;20400;-61
2024/01/22 10:10:01;;;;;;;26.67;5.78;;;10.10;99.90;;;;;;5070705;28;20135;-60
2024/01/22 10:12:28;;;;;;;31.98;6.43;;;10.30;99.90;;;;;;5072720;28;20325;-61
2024/01/22 10:14:54;;;;;;;25.10;6.72;;;10.10;99.90;;;;;;5073537;28;20041;-61
2024/01/22 10:17:24;;;;;;;30.52;6.25;;;10.20;99.90;;;;;;5054835;28;20071;-60
2024/01/22 10:19:54;;;;;;;27.95;6.78;;;10.40;99.90;;;;;;5070991;28;20072;-62
2024/01/22 10:22:23;;;;;;;31.33;6.35;;;10.40;99.90;;;;;;5055075;28;20040;-62
2024/01/22 10:25:00;;;;;;;27.70;5.25;;;10.10;99.90;;;;;;5071669;28;20055;-62
2024/01/22 10:27:27;;;;;;;28.70;6.15;;;10.00;99.90;;;;;;5073300;28;20049;-61
2024/01/22 10:30:11;;;;;;;29.85;6.28;;;10.10;99.90;;;;;;5064944;28;20045;-61
2024/01/22 10:32:39;;;;;;;24.90;6.05;;;9.90;99.90;;;;;;5052191;28;20056;-61
2024/01/22 10:35:29;;;;;;;35.15;6.70;;;10.10;99.90;;;;;;5034662;28;20065;-61
2024/01/22 10:38:13;;;;;;;27.33;6.60;;;10.00;99.90;;;;;;5018982;28;20049;-62
2024/01/22 10:40:40;;;;;;;26.63;6.35;;;10.10;99.90;;;;;;5063969;28;20109;-61
2024/01/22 10:43:26;;;;;;;27.48;5.68;;;10.00;99.90;;;;;;5054168;28;20049;-61
2024/01/22 10:45:57;;;;;;;29.23;6.15;;;10.00;99.90;;;;;;5071415;28;20056;-62
2024/01/22 10:48:25;;;;;;;32.00;6.80;;;9.80;99.90;;;;;;5071124;28;20083;-63
2024/01/22 10:50:52;;;;;;;31.33;6.32;;;10.00;99.90;;;;;;5070790;28;20053;-61
2024/01/22 10:53:19;;;;;;;25.63;6.38;;;9.80;99.90;;;;;;5069208;28;20056;-62
2024/01/22 10:55:59;;;;;;;37.20;6.95;;;9.80;99.90;;;;;;5071514;28;20067;-63
2024/01/22 10:58:29;;;;;;;24.23;6.05;;;9.90;99.90;;;;;;5050904;28;20052;-62
2024/01/22 11:01:01;;;;;;;27.70;6.72;;;9.70;99.90;;;;;;5046963;28;20552;-62
2024/01/22 11:03:28;;;;;;;28.67;5.97;;;9.80;99.90;;;;;;5050428;28;20041;-62
2024/01/22 11:05:59;;;;;;;31.70;6.53;;;9.80;99.90;;;;;;5067436;28;20048;-62
2024/01/22 11:08:28;;;;;;;31.92;6.20;;;10.00;99.90;;;;;;5051455;28;20126;-61
2024/01/22 11:10:55;;;;;;;31.85;7.43;;;9.90;99.90;;;;;;5068457;28;20118;-61
2024/01/22 11:13:23;;;;;;;20.80;4.78;;;9.80;99.90;;;;;;5072448;28;20162;-62
2024/01/22 11:15:49;;;;;;;30.23;6.82;;;9.90;99.90;;;;;;5072464;28;20142;-61
2024/01/22 11:18:16;;;;;;;34.17;6.03;;;10.10;99.90;;;;;;5072374;28;20076;-62
2024/01/22 11:20:43;;;;;;;31.85;6.93;;;10.10;99.90;;;;;;5058364;28;20670;-62
2024/01/22 11:23:15;;;;;;;28.25;6.50;;;10.10;99.90;;;;;;5052051;28;20083;-61
2024/01/22 11:25:41;;;;;;;36.05;8.48;;;10.10;99.90;;;;;;5034179;28;20461;-62
2024/01/22 11:28:10;;;;;;;30.17;6.50;;;10.10;99.90;;;;;;5034383;28;20059;-60
2024/01/22 11:30:41;;;;;;;29.02;6.00;;;10.00;99.90;;;;;;5051877;28;20048;-61
2024/01/22 11:33:23;;;;;;;32.08;6.90;;;10.10;99.90;;;;;;5050861;28;20128;-61
2024/01/22 11:35:50;;;;;;;24.85;6.95;;;10.10;99.90;;;;;;5062380;28;20234;-62
2024/01/22 11:38:42;;;;;;;25.33;5.35;;;10.30;99.90;;;;;;5070789;28;20044;-62
2024/01/22 11:41:08;;;;;;;25.17;5.82;;;10.20;99.90;;;;;;5070535;28;20048;-61
2024/01/22 11:43:35;;;;;;;23.48;6.07;;;10.30;99.90;;;;;;5069986;28;20078;-61
2024/01/22 11:46:14;;;;;;;24.20;5.75;;;10.20;99.90;;;;;;5070217;28;20816;-62
2024/01/22 11:48:41;;;;;;;22.35;6.25;;;10.40;99.90;;;;;;5070487;28;20048;-61
2024/01/22 11:51:07;;;;;;;23.88;5.30;;;10.30;99.90;;;;;;5070196;28;20048;-61
2024/01/22 11:53:53;;;;;;;21.30;4.38;;;10.00;99.90;;;;;;5070697;28;20049;-61
2024/01/22 11:56:23;;;;;;;20.58;4.85;;;10.10;99.90;;;;;;5070599;28;20053;-60
2024/01/22 11:59:02;;;;;;;21.02;4.70;;;10.10;99.90;;;;;;5071211;28;20052;-62
2024/01/22 12:01:28;;;;;;;23.23;4.65;;;10.20;99.90;;;;;;5067701;28;20037;-61
2024/01/22 12:03:54;;;;;;;19.65;5.45;;;10.10;99.90;;;;;;5071071;28;20122;-62
2024/01/22 12:06:25;;;;;;;18.73;4.47;;;10.10;99.90;;;;;;5069696;28;20044;-62
2024/01/22 12:08:58;;;;;;;20.10;4.43;;;10.20;99.90;;;;;;5071612;28;20135;-62
2024/01/22 12:11:36;;;;;;;19.08;4.82;;;10.10;99.90;;;;;;5072220;28;20052;-63
2024/01/22 12:14:02;;;;;;;19.98;5.03;;;10.00;99.90;;;;;;5074777;28;20065;-62
2024/01/22 12:16:28;;;;;;;23.30;6.40;;;10.10;99.90;;;;;;5072900;28;20064;-62
2024/01/22 12:19:10;;;;;;;24.02;5.45;;;10.10;99.90;;;;;;5072292;28;20055;-63
2024/01/22 12:21:40;;;;;;;18.65;5.70;;;10.10;99.90;;;;;;5054184;28;20049;-59
2024/01/22 12:24:14;;;;;;;21.48;5.53;;;10.10;99.90;;;;;;5053575;28;20063;-62
2024/01/22 12:26:41;;;;;;;24.58;4.93;;;10.30;99.90;;;;;;5064619;28;20380;-62
2024/01/22 12:29:29;;;;;;;22.40;5.60;;;10.10;99.90;;;;;;5074372;28;20048;-62
2024/01/22 12:32:05;;;;;;;23.50;6.80;;;10.10;99.90;;;;;;5052858;28;20057;-63
2024/01/22 12:34:33;;;;;;;25.92;5.75;;;10.10;99.90;;;;;;5053792;28;20458;-63
2024/01/22 12:37:16;;;;;;;23.38;4.88;;;10.10;99.90;;;;;;5055249;28;20057;-63
2024/01/22 12:39:44;;;;;;;22.35;6.72;;;10.10;99.90;;;;;;5059074;28;20060;-62
2024/01/22 12:42:20;;;;;;;22.75;5.75;;;9.90;99.90;;;;;;5074529;28;20408;-62
2024/01/22 12:45:00;;;;;;;22.17;6.40;;;9.90;99.90;;;;;;5074391;28;20052;-61
2024/01/22 12:47:29;;;;;;;20.92;5.70;;;10.00;99.90;;;;;;5073280;28;20048;-62
2024/01/22 12:49:56;;;;;;;24.10;6.70;;;9.90;99.90;;;;;;5074660;28;20067;-61
2024/01/22 12:52:23;;;;;;;21.55;5.93;;;10.00;99.90;;;;;;5073152;28;20051;-62